Time;durP1;ratioP1;P1;durP2;ratioP2;P2;SDS_P1;SDS_P2;PMS_P1;PMS_P2;Temp;Humidity;BMP_temperature;BMP_pressure;BME280_temperature;BME280_humidity;BME280_pressure;Samples;Min_cycle;Max_cycle;Signal;HPM_P1;HPM_P2
2024/04/08 00:00:04;;;;;;;3.93;2.20;;;18.00;99.90;;;;;;5405229;26;20278;-77
2024/04/08 00:02:31;;;;;;;2.93;2.40;;;17.90;99.90;;;;;;5368857;26;20238;-77
2024/04/08 00:05:02;;;;;;;4.13;2.50;;;17.90;99.90;;;;;;5406434;26;20683;-77
2024/04/08 00:07:28;;;;;;;2.93;2.03;;;17.80;99.90;;;;;;5384972;26;20265;-77
2024/04/08 00:09:57;;;;;;;4.33;2.47;;;17.80;99.90;;;;;;5416583;26;20282;-77
2024/04/08 00:12:22;;;;;;;2.50;1.97;;;17.70;99.90;;;;;;5392207;26;20238;-77
2024/04/08 00:14:51;;;;;;;4.43;2.43;;;17.70;99.90;;;;;;5371653;26;20745;-77
2024/04/08 00:17:17;;;;;;;2.87;2.20;;;17.60;99.90;;;;;;5384360;26;20276;-77
2024/04/08 00:19:45;;;;;;;3.90;2.10;;;17.60;99.90;;;;;;5394942;26;20288;-77
2024/04/08 00:22:16;;;;;;;5.63;2.80;;;17.50;99.90;;;;;;5364368;26;20640;-77
2024/04/08 00:24:42;;;;;;;5.27;2.80;;;17.40;99.90;;;;;;5396724;26;20239;-77
2024/04/08 00:27:11;;;;;;;2.60;2.07;;;17.40;99.90;;;;;;5390989;26;20286;-77
2024/04/08 00:29:37;;;;;;;2.13;1.93;;;17.40;99.90;;;;;;5369587;26;20604;-78
2024/04/08 00:32:06;;;;;;;5.30;2.10;;;17.40;99.90;;;;;;5391291;26;20288;-77
2024/04/08 00:34:31;;;;;;;2.90;2.10;;;17.30;99.90;;;;;;5387296;26;20238;-77
2024/04/08 00:37:00;;;;;;;3.80;2.87;;;17.30;99.90;;;;;;5391746;26;20234;-77
2024/04/08 00:39:28;;;;;;;2.67;2.43;;;17.20;99.90;;;;;;5388595;26;20238;-77
2024/04/08 00:41:57;;;;;;;5.20;2.30;;;17.30;99.90;;;;;;5415766;26;20250;-77
2024/04/08 00:44:23;;;;;;;2.33;2.13;;;17.30;99.90;;;;;;5397533;26;20245;-77
2024/04/08 00:46:52;;;;;;;6.20;2.60;;;17.30;99.90;;;;;;5361931;26;20241;-77
2024/04/08 00:49:19;;;;;;;2.93;2.43;;;17.30;99.90;;;;;;5395734;26;20284;-77
2024/04/08 00:51:48;;;;;;;3.57;2.80;;;17.30;99.90;;;;;;5409494;26;20288;-77
2024/04/08 00:54:13;;;;;;;3.03;2.53;;;17.30;99.90;;;;;;5391531;26;20808;-77
2024/04/08 00:56:46;;;;;;;3.40;2.60;;;17.30;99.90;;;;;;5367255;26;20245;-77
2024/04/08 00:59:14;;;;;;;6.27;2.67;;;17.30;99.90;;;;;;5375118;26;20253;-77
2024/04/08 01:01:43;;;;;;;4.80;2.40;;;17.30;99.90;;;;;;5398371;26;20241;-77
2024/04/08 01:04:10;;;;;;;4.13;2.57;;;17.30;99.90;;;;;;5387947;26;20234;-78
2024/04/08 01:06:38;;;;;;;4.40;2.07;;;17.30;99.90;;;;;;5417432;26;20612;-77
2024/04/08 01:09:04;;;;;;;2.67;1.90;;;17.40;99.90;;;;;;5409491;26;20232;-78
2024/04/08 01:11:33;;;;;;;2.73;2.00;;;17.40;99.90;;;;;;5416214;26;20255;-77
2024/04/08 01:14:01;;;;;;;3.07;1.73;;;17.40;99.90;;;;;;5365213;26;20290;-77
2024/04/08 01:16:30;;;;;;;4.10;2.30;;;17.30;99.90;;;;;;5393548;26;20355;-77
2024/04/08 01:18:56;;;;;;;3.17;2.10;;;17.20;99.90;;;;;;5394877;26;20275;-78
2024/04/08 01:21:24;;;;;;;3.73;2.20;;;17.20;99.90;;;;;;5413950;26;20243;-77
2024/04/08 01:23:53;;;;;;;3.80;2.33;;;17.10;99.90;;;;;;5379746;26;20241;-77
2024/04/08 01:26:21;;;;;;;4.90;2.90;;;17.00;99.90;;;;;;5412206;26;20238;-77
2024/04/08 01:28:49;;;;;;;3.33;2.37;;;16.90;99.90;;;;;;5380401;26;20243;-77
2024/04/08 01:31:18;;;;;;;3.50;2.63;;;16.90;99.90;;;;;;5399897;26;20249;-77
2024/04/08 01:33:44;;;;;;;6.17;2.43;;;16.80;99.90;;;;;;5359710;26;20274;-77
2024/04/08 01:36:13;;;;;;;3.50;2.30;;;16.70;99.90;;;;;;5395069;26;20248;-77
2024/04/08 01:38:39;;;;;;;3.13;2.70;;;16.70;99.90;;;;;;5385574;26;20283;-77
2024/04/08 01:41:11;;;;;;;6.10;3.10;;;16.60;99.90;;;;;;5418439;26;20276;-77
2024/04/08 01:43:37;;;;;;;5.00;3.07;;;16.60;99.90;;;;;;5401394;26;20230;-77
2024/04/08 01:46:06;;;;;;;5.03;3.20;;;16.50;99.90;;;;;;5386734;26;20241;-77
2024/04/08 01:48:32;;;;;;;4.60;3.20;;;16.50;99.90;;;;;;5386705;26;20240;-77
2024/04/08 01:51:00;;;;;;;6.93;3.17;;;16.50;99.90;;;;;;5395997;26;20294;-77
2024/04/08 01:53:26;;;;;;;5.50;2.30;;;16.50;99.90;;;;;;5402479;26;20283;-77
2024/04/08 01:55:54;;;;;;;4.37;2.60;;;16.40;99.90;;;;;;5382846;26;20244;-77
2024/04/08 01:58:23;;;;;;;6.87;3.53;;;16.40;99.90;;;;;;5380464;26;20237;-77
2024/04/08 02:00:51;;;;;;;4.77;4.37;;;16.30;99.90;;;;;;5366164;26;20762;-77
2024/04/08 02:03:17;;;;;;;7.50;5.20;;;16.20;99.90;;;;;;5417703;26;20279;-77
2024/04/08 02:05:47;;;;;;;6.17;5.20;;;16.20;99.90;;;;;;5395052;26;20587;-77
2024/04/08 02:08:13;;;;;;;7.97;5.67;;;16.20;99.90;;;;;;5391772;26;20226;-77
2024/04/08 02:10:41;;;;;;;6.40;5.80;;;16.20;99.90;;;;;;5413470;26;20787;-77
2024/04/08 02:13:07;;;;;;;5.53;5.03;;;16.10;99.90;;;;;;5371508;26;20242;-78
2024/04/08 02:15:38;;;;;;;5.87;5.37;;;16.10;99.90;;;;;;5361214;26;20641;-77
2024/04/08 02:18:06;;;;;;;5.30;4.87;;;16.10;99.90;;;;;;5416293;26;20232;-77
2024/04/08 02:20:39;;;;;;;6.83;5.10;;;16.00;99.90;;;;;;5391317;26;20269;-77
2024/04/08 02:23:05;;;;;;;11.13;5.70;;;16.00;99.90;;;;;;5371181;26;20596;-77
2024/04/08 02:25:33;;;;;;;6.43;5.57;;;16.00;99.90;;;;;;5404195;26;20304;-77
2024/04/08 02:27:59;;;;;;;7.10;6.40;;;15.90;99.90;;;;;;5367350;26;20265;-77
2024/04/08 02:30:27;;;;;;;7.93;5.47;;;15.80;99.90;;;;;;5401846;26;20242;-77
2024/04/08 02:32:56;;;;;;;5.40;2.50;;;15.80;99.90;;;;;;5356142;26;20301;-77
2024/04/08 02:35:24;;;;;;;5.97;2.80;;;15.70;99.90;;;;;;5403481;26;20232;-77
2024/04/08 02:37:50;;;;;;;7.50;4.17;;;15.70;99.90;;;;;;5391003;26;20785;-77
2024/04/08 02:40:19;;;;;;;6.40;5.80;;;15.60;99.90;;;;;;5385633;26;20244;-77
2024/04/08 02:42:45;;;;;;;8.77;6.17;;;15.50;99.90;;;;;;5402105;26;20279;-76
2024/04/08 02:45:13;;;;;;;7.67;6.00;;;15.50;99.90;;;;;;5416095;26;20247;-77
2024/04/08 02:47:39;;;;;;;6.50;5.90;;;15.40;99.90;;;;;;5387960;26;20636;-76
2024/04/08 02:50:10;;;;;;;6.30;5.70;;;15.40;99.90;;;;;;5402822;26;20240;-79
2024/04/08 02:52:36;;;;;;;6.50;5.90;;;15.30;99.90;;;;;;5412167;26;20614;-78
2024/04/08 02:55:04;;;;;;;7.23;4.23;;;15.30;99.90;;;;;;5378169;26;20247;-81
2024/04/08 02:57:30;;;;;;;8.43;3.03;;;15.20;99.90;;;;;;5396292;26;20369;-81
2024/04/08 02:59:59;;;;;;;5.60;3.00;;;15.10;99.90;;;;;;5374580;26;20734;-81
2024/04/08 03:02:25;;;;;;;4.70;2.50;;;15.00;99.90;;;;;;5382937;26;20282;-81
2024/04/08 03:04:56;;;;;;;6.97;2.90;;;15.00;99.90;;;;;;5374132;26;20593;-81
2024/04/08 03:07:25;;;;;;;5.33;3.00;;;14.90;99.90;;;;;;5416934;26;20283;-81
2024/04/08 03:09:53;;;;;;;9.43;3.30;;;14.80;99.90;;;;;;5398464;26;20756;-80
2024/04/08 03:12:19;;;;;;;5.73;2.80;;;14.70;99.90;;;;;;5373909;26;20245;-80
2024/04/08 03:14:48;;;;;;;7.70;3.23;;;14.60;99.90;;;;;;5413582;26;20285;-79
2024/04/08 03:17:14;;;;;;;6.53;3.20;;;14.60;99.90;;;;;;5418937;26;20239;-81
2024/04/08 03:19:42;;;;;;;5.97;4.80;;;14.50;99.90;;;;;;5379092;26;20240;-81
2024/04/08 03:22:08;;;;;;;6.43;4.40;;;14.50;99.90;;;;;;5405562;26;20239;-80
2024/04/08 03:24:39;;;;;;;10.60;5.03;;;14.40;99.90;;;;;;5387301;26;20627;-78
2024/04/08 03:27:05;;;;;;;8.00;6.20;;;14.40;99.90;;;;;;5376769;26;20241;-79
2024/04/08 03:29:33;;;;;;;6.67;5.80;;;14.30;99.90;;;;;;5389616;26;20273;-78
2024/04/08 03:31:59;;;;;;;7.17;6.10;;;14.20;99.90;;;;;;5365433;26;20250;-78
2024/04/08 03:34:27;;;;;;;7.30;6.60;;;14.20;99.90;;;;;;5354494;26;20295;-77
2024/04/08 03:36:56;;;;;;;9.40;6.70;;;14.10;99.90;;;;;;5380619;26;20667;-77
2024/04/08 03:39:24;;;;;;;8.43;6.90;;;14.00;99.90;;;;;;5359551;26;20237;-77
2024/04/08 03:41:55;;;;;;;7.33;6.63;;;14.00;99.90;;;;;;5389634;26;20279;-76
2024/04/08 03:44:24;;;;;;;10.60;7.40;;;13.90;99.90;;;;;;5403574;26;20283;-77
2024/04/08 03:46:50;;;;;;;10.67;7.30;;;13.90;99.90;;;;;;5386388;26;20276;-78
2024/04/08 03:49:18;;;;;;;9.17;6.70;;;13.80;99.90;;;;;;5405144;26;20245;-78
2024/04/08 03:51:45;;;;;;;7.90;6.63;;;13.80;99.90;;;;;;5369115;26;20292;-79
2024/04/08 03:54:16;;;;;;;7.50;6.90;;;13.80;99.90;;;;;;5391642;26;20839;-79
2024/04/08 03:56:41;;;;;;;7.30;6.60;;;13.80;99.90;;;;;;5370301;26;20343;-78
2024/04/08 03:59:12;;;;;;;6.70;6.10;;;13.90;99.90;;;;;;5373328;26;20248;-78
2024/04/08 04:01:38;;;;;;;7.23;6.63;;;13.90;99.90;;;;;;5410971;26;20250;-78
2024/04/08 04:04:07;;;;;;;7.47;6.77;;;13.80;99.90;;;;;;5385322;26;20605;-78
2024/04/08 04:06:33;;;;;;;6.87;6.17;;;13.80;99.90;;;;;;5371250;26;20271;-78
2024/04/08 04:09:01;;;;;;;7.50;6.33;;;13.80;99.90;;;;;;5378925;26;20246;-78
2024/04/08 04:11:27;;;;;;;7.13;6.53;;;13.70;99.90;;;;;;5359426;26;20253;-78
2024/04/08 04:13:55;;;;;;;9.50;4.70;;;13.70;99.90;;;;;;5413829;26;20282;-78
2024/04/08 04:16:24;;;;;;;12.00;4.87;;;13.70;99.90;;;;;;5406747;26;20279;-78
2024/04/08 04:18:54;;;;;;;7.53;4.17;;;13.60;99.90;;;;;;5408390;26;20235;-78
2024/04/08 04:21:21;;;;;;;6.53;3.83;;;13.50;99.90;;;;;;5365925;26;20734;-78
2024/04/08 04:23:50;;;;;;;6.97;4.17;;;13.40;99.90;;;;;;5363395;26;20341;-78
2024/04/08 04:26:16;;;;;;;10.00;5.13;;;13.30;99.90;;;;;;5367014;26;20260;-79
2024/04/08 04:28:44;;;;;;;15.30;6.83;;;13.30;99.90;;;;;;5361487;26;20641;-78
2024/04/08 04:31:10;;;;;;;11.30;7.47;;;13.30;99.90;;;;;;5385456;26;20290;-79
2024/04/08 04:33:41;;;;;;;11.83;7.80;;;13.20;99.90;;;;;;5367794;26;20277;-79
2024/04/08 04:36:07;;;;;;;12.13;8.23;;;13.10;99.90;;;;;;5396867;26;20286;-79
2024/04/08 04:38:36;;;;;;;9.63;8.03;;;13.10;99.90;;;;;;5403103;26;20243;-79
2024/04/08 04:41:03;;;;;;;10.37;7.40;;;13.00;99.90;;;;;;5372729;26;20276;-79
2024/04/08 04:43:32;;;;;;;11.03;7.67;;;13.00;99.90;;;;;;5363760;26;20243;-79
2024/04/08 04:45:58;;;;;;;12.60;8.37;;;13.00;99.90;;;;;;5392301;26;20234;-79
2024/04/08 04:48:27;;;;;;;12.47;8.70;;;13.00;99.90;;;;;;5364348;26;20246;-79
2024/04/08 04:50:55;;;;;;;16.93;8.40;;;13.00;99.90;;;;;;5384081;26;20290;-79
2024/04/08 04:53:24;;;;;;;11.27;8.00;;;13.00;99.90;;;;;;5352517;26;20242;-79
2024/04/08 04:55:52;;;;;;;9.43;7.70;;;13.00;99.90;;;;;;5377979;26;20236;-79
2024/04/08 04:58:20;;;;;;;8.50;7.70;;;12.90;99.90;;;;;;5382746;26;20275;-79
2024/04/08 05:00:47;;;;;;;11.37;7.53;;;12.90;99.90;;;;;;5361935;26;20729;-79
2024/04/08 05:03:16;;;;;;;11.27;9.57;;;12.80;99.90;;;;;;5396741;26;20244;-78
2024/04/08 05:05:42;;;;;;;13.57;9.27;;;12.90;99.90;;;;;;5377132;26;20236;-78
2024/04/08 05:08:13;;;;;;;9.73;8.60;;;12.80;99.90;;;;;;5393423;26;20287;-78
2024/04/08 05:10:39;;;;;;;11.60;8.03;;;12.90;99.90;;;;;;5359369;26;20245;-79
2024/04/08 05:13:07;;;;;;;12.00;8.77;;;12.90;99.90;;;;;;5367045;26;20242;-79
2024/04/08 05:15:33;;;;;;;10.77;8.10;;;12.90;99.90;;;;;;5397898;26;20885;-79
2024/04/08 05:18:02;;;;;;;10.63;7.77;;;13.00;99.90;;;;;;5363976;26;20242;-79
2024/04/08 05:20:29;;;;;;;9.50;7.40;;;13.00;99.90;;;;;;5366336;26;20655;-79
2024/04/08 05:22:58;;;;;;;9.97;7.63;;;13.10;99.90;;;;;;5396426;26;20234;-79
2024/04/08 05:25:27;;;;;;;11.57;7.40;;;13.20;99.90;;;;;;5407786;26;20233;-79
2024/04/08 05:27:56;;;;;;;9.50;7.20;;;13.20;99.90;;;;;;5391901;26;20239;-79
2024/04/08 05:30:22;;;;;;;10.37;6.97;;;13.30;99.90;;;;;;5374932;26;20595;-79
2024/04/08 05:32:50;;;;;;;11.83;6.83;;;13.40;99.90;;;;;;5386597;26;20293;-79
2024/04/08 05:35:16;;;;;;;18.33;8.40;;;13.50;99.90;;;;;;5397904;26;20252;-79
2024/04/08 05:37:45;;;;;;;15.93;8.20;;;13.50;99.90;;;;;;5356696;26;20239;-79
2024/04/08 05:40:13;;;;;;;12.23;7.87;;;13.50;99.90;;;;;;5407975;26;20392;-79
2024/04/08 05:42:44;;;;;;;10.40;7.60;;;13.60;99.90;;;;;;5400907;26;20794;-79
2024/04/08 05:45:10;;;;;;;9.17;7.20;;;13.70;99.90;;;;;;5416530;26;20232;-79
2024/04/08 05:47:39;;;;;;;14.53;5.93;;;13.80;99.90;;;;;;5398553;26;20240;-79
2024/04/08 05:50:05;;;;;;;9.50;6.80;;;13.90;99.90;;;;;;5390358;26;20242;-79
2024/04/08 05:52:34;;;;;;;9.17;7.03;;;14.10;99.90;;;;;;5410583;26;20237;-79
2024/04/08 05:55:01;;;;;;;10.70;5.63;;;14.20;99.90;;;;;;5376361;26;20764;-79
2024/04/08 05:57:29;;;;;;;11.20;5.97;;;14.30;99.90;;;;;;5395750;26;20238;-79
2024/04/08 05:59:57;;;;;;;14.43;6.37;;;14.40;99.90;;;;;;5402613;26;20233;-79
2024/04/08 06:02:26;;;;;;;13.27;7.23;;;14.50;99.90;;;;;;5406289;26;20233;-79
2024/04/08 06:04:53;;;;;;;13.20;7.00;;;14.60;99.90;;;;;;5414538;26;20240;-79
2024/04/08 06:07:21;;;;;;;14.33;6.03;;;14.70;99.90;;;;;;5368719;26;20241;-79
2024/04/08 06:09:47;;;;;;;10.20;4.57;;;14.80;99.90;;;;;;5402989;26;20294;-78
2024/04/08 06:12:16;;;;;;;10.23;5.10;;;15.00;99.90;;;;;;5383629;26;20241;-79
2024/04/08 06:14:42;;;;;;;9.90;5.13;;;15.20;99.90;;;;;;5365264;26;20276;-79
2024/04/08 06:17:13;;;;;;;8.67;4.80;;;15.30;99.90;;;;;;5404015;26;20241;-79
2024/04/08 06:19:38;;;;;;;7.13;3.87;;;15.50;99.90;;;;;;5394216;26;20225;-79
2024/04/08 06:22:07;;;;;;;7.87;3.97;;;15.70;99.90;;;;;;5417805;26;20287;-79
2024/04/08 06:24:33;;;;;;;6.37;3.90;;;15.90;99.90;;;;;;5378742;26;20238;-79
2024/04/08 06:27:02;;;;;;;8.03;3.60;;;16.10;99.90;;;;;;5402048;26;20825;-79
2024/04/08 06:29:28;;;;;;;9.13;4.17;;;16.20;99.90;;;;;;5354910;26;20592;-79
2024/04/08 06:31:56;;;;;;;8.97;4.20;;;16.30;99.90;;;;;;5364949;26;20284;-79
2024/04/08 06:34:25;;;;;;;11.43;4.83;;;16.40;99.90;;;;;;5407869;26;20229;-79
2024/04/08 06:36:53;;;;;;;10.20;4.87;;;16.50;99.90;;;;;;5374374;26;20234;-79
2024/04/08 06:39:19;;;;;;;7.57;4.67;;;16.60;99.90;;;;;;5407941;26;20758;-79
2024/04/08 06:41:47;;;;;;;7.50;3.50;;;16.80;99.90;;;;;;5375531;26;20284;-79
2024/04/08 06:44:13;;;;;;;8.20;4.13;;;16.90;99.90;;;;;;5379551;26;20277;-79
2024/04/08 06:46:42;;;;;;;7.47;3.60;;;17.10;99.90;;;;;;5373005;26;20337;-78
2024/04/08 06:49:09;;;;;;;10.97;4.10;;;17.20;99.90;;;;;;5394850;26;20274;-79
2024/04/08 06:51:40;;;;;;;13.80;4.47;;;17.30;99.90;;;;;;5372481;26;20784;-79
2024/04/08 06:54:06;;;;;;;8.43;3.70;;;17.40;99.90;;;;;;5393164;26;20234;-79
2024/04/08 06:56:35;;;;;;;11.27;3.97;;;17.50;99.90;;;;;;5404493;26;20349;-79
2024/04/08 06:59:00;;;;;;;8.17;3.87;;;17.70;99.90;;;;;;5404586;26;20267;-79
2024/04/08 07:01:30;;;;;;;15.40;4.13;;;17.90;99.90;;;;;;5394492;26;20249;-79
2024/04/08 07:03:58;;;;;;;7.10;3.10;;;18.10;99.90;;;;;;5373435;26;20610;-78
2024/04/08 07:06:24;;;;;;;6.53;3.73;;;18.30;99.90;;;;;;5420464;26;20235;-79
2024/04/08 07:08:55;;;;;;;9.20;3.47;;;18.50;99.90;;;;;;5405681;26;20781;-79
2024/04/08 07:11:21;;;;;;;5.80;3.13;;;18.70;99.90;;;;;;5408672;26;20591;-79
2024/04/08 07:13:50;;;;;;;8.83;3.50;;;19.00;99.90;;;;;;5387716;26;20274;-79
2024/04/08 07:16:16;;;;;;;8.13;3.50;;;19.10;99.90;;;;;;5411416;26;20555;-79
2024/04/08 07:18:47;;;;;;;9.97;3.70;;;19.30;99.90;;;;;;5397668;26;20287;-81
2024/04/08 07:32:06;;;;;;;11.50;4.50;;;20.30;99.90;;;;;;6222488;21;20266;-77
2024/04/08 07:34:32;;;;;;;10.67;4.13;;;20.50;99.90;;;;;;5366108;26;20791;-77
2024/04/08 07:37:00;;;;;;;13.33;4.13;;;20.70;99.90;;;;;;5361078;26;20239;-77
2024/04/08 07:39:26;;;;;;;11.30;4.07;;;21.10;99.90;;;;;;5346472;26;20241;-77
2024/04/08 07:41:54;;;;;;;8.27;3.77;;;21.30;99.90;;;;;;5345762;26;20243;-77
2024/04/08 07:44:21;;;;;;;12.50;4.63;;;21.50;99.90;;;;;;5355522;26;20280;-77
2024/04/08 07:46:49;;;;;;;10.07;4.20;;;21.80;99.90;;;;;;5350201;26;20234;-78
2024/04/08 07:49:17;;;;;;;11.93;4.67;;;22.10;99.90;;;;;;5348229;26;20287;-77
2024/04/08 07:51:46;;;;;;;8.97;4.43;;;22.40;99.90;;;;;;5340747;26;20252;-78
2024/04/08 07:54:12;;;;;;;11.90;4.23;;;22.50;99.90;;;;;;5322886;26;20277;-77
2024/04/08 07:56:40;;;;;;;12.27;4.43;;;22.60;99.90;;;;;;5346715;26;20722;-78
2024/04/08 07:59:06;;;;;;;8.70;4.23;;;22.80;99.90;;;;;;5357956;26;20300;-78
2024/04/08 08:01:34;;;;;;;9.53;3.83;;;22.80;99.90;;;;;;5353148;26;20242;-77
2024/04/08 08:04:00;;;;;;;12.30;4.50;;;23.10;99.90;;;;;;5314404;26;20500;-78
2024/04/08 08:06:32;;;;;;;11.83;3.60;;;23.50;99.90;;;;;;5321180;26;20277;-77
2024/04/08 08:09:00;;;;;;;8.80;3.67;;;23.70;99.90;;;;;;5362898;26;20238;-77
2024/04/08 08:11:28;;;;;;;11.30;4.03;;;23.90;99.90;;;;;;5339098;26;20238;-78
2024/04/08 08:13:55;;;;;;;11.77;3.73;;;24.10;99.90;;;;;;5341164;26;20289;-77
2024/04/08 08:16:23;;;;;;;13.13;4.50;;;24.20;99.90;;;;;;5322026;26;20280;-77
2024/04/08 08:18:52;;;;;;;15.10;4.30;;;24.40;99.90;;;;;;5303998;26;20242;-78
2024/04/08 08:21:18;;;;;;;10.87;3.73;;;24.10;99.90;;;;;;5327966;26;20798;-77
2024/04/08 08:23:49;;;;;;;14.53;3.93;;;24.30;99.90;;;;;;5330258;26;20237;-77
2024/04/08 08:26:17;;;;;;;8.20;3.57;;;24.60;99.90;;;;;;5343138;26;20226;-77
2024/04/08 08:28:48;;;;;;;7.33;3.73;;;24.80;99.90;;;;;;5354970;26;20272;-77
2024/04/08 08:31:17;;;;;;;12.97;4.07;;;24.90;99.90;;;;;;5332967;26;20246;-78
2024/04/08 08:33:45;;;;;;;9.93;3.93;;;25.00;99.90;;;;;;5369061;26;20280;-77
2024/04/08 08:36:11;;;;;;;10.73;3.53;;;25.10;99.90;;;;;;5336059;26;20245;-77
2024/04/08 08:38:40;;;;;;;9.73;3.70;;;25.10;99.90;;;;;;5330450;26;20275;-77
2024/04/08 08:41:17;;;;;;;11.07;3.87;;;25.10;99.90;;;;;;5317367;26;22038;-79
2024/04/08 09:06:38;;;;;;;10.87;3.63;;;26.10;99.90;;;;;;4894930;29;20646;-80
2024/04/08 09:09:05;;;;;;;11.80;3.47;;;26.20;99.90;;;;;;4883162;29;20254;-77
2024/04/08 09:11:33;;;;;;;12.70;3.93;;;26.50;99.90;;;;;;4872041;29;20617;-78
2024/04/08 09:14:06;;;;;;;9.03;4.00;;;26.60;99.90;;;;;;4853211;29;20763;-78
2024/04/08 09:16:34;;;;;;;11.50;4.40;;;26.70;99.90;;;;;;4870369;29;20679;-78
2024/04/08 09:19:01;;;;;;;8.17;4.40;;;26.50;99.90;;;;;;4872472;29;20247;-78
2024/04/08 09:21:30;;;;;;;13.63;4.20;;;26.60;99.90;;;;;;4872579;29;20258;-78
2024/04/08 09:24:06;;;;;;;10.23;4.60;;;26.70;99.90;;;;;;4870084;29;20390;-75
2024/04/08 09:26:35;;;;;;;8.17;3.73;;;26.90;99.90;;;;;;4865342;29;20351;-79
2024/04/08 09:29:04;;;;;;;8.70;3.50;;;27.20;99.90;;;;;;4855255;29;20385;-79
2024/04/08 09:36:55;;;;;;;10.43;4.27;;;27.40;99.90;;;;;;4871398;29;20242;-80
2024/04/08 09:39:29;;;;;;;10.30;3.73;;;27.10;99.90;;;;;;4863195;29;20301;-80
2024/04/08 09:42:00;;;;;;;10.63;3.90;;;27.10;99.90;;;;;;5021804;24;20287;-80
2024/04/08 09:44:30;;;;;;;10.60;3.80;;;27.20;99.90;;;;;;4845783;29;20700;-77
2024/04/08 09:47:02;;;;;;;13.63;4.10;;;27.30;99.90;;;;;;4844230;29;20290;-77
2024/04/08 09:49:28;;;;;;;11.13;3.47;;;27.30;99.90;;;;;;4845088;29;20263;-78
2024/04/08 09:51:59;;;;;;;9.10;3.70;;;27.40;99.90;;;;;;4822329;29;20360;-77
2024/04/08 09:54:27;;;;;;;7.53;3.23;;;27.60;99.90;;;;;;4818024;29;20266;-77
2024/04/08 09:57:02;;;;;;;10.70;4.77;;;27.60;99.90;;;;;;4817868;29;20249;-77
2024/04/08 09:59:29;;;;;;;10.53;4.13;;;27.60;99.90;;;;;;4818299;29;20298;-77
2024/04/08 10:01:58;;;;;;;11.07;3.37;;;27.40;98.40;;;;;;4817667;29;20256;-77
2024/04/08 10:04:27;;;;;;;9.70;3.60;;;27.40;98.20;;;;;;4817987;29;20299;-77
2024/04/08 10:06:57;;;;;;;9.30;3.53;;;27.40;99.50;;;;;;4816863;29;20256;-77
2024/04/08 10:09:25;;;;;;;6.37;3.00;;;27.40;97.70;;;;;;4806089;29;20272;-77
2024/04/08 10:11:56;;;;;;;6.17;2.77;;;27.60;99.00;;;;;;4816511;29;20320;-77
2024/04/08 10:14:23;;;;;;;3.93;3.10;;;27.80;97.60;;;;;;4811192;29;20280;-77
2024/04/08 10:16:52;;;;;;;11.40;4.80;;;28.10;96.10;;;;;;4804469;29;20298;-77
2024/04/08 10:19:20;;;;;;;8.97;4.93;;;27.90;95.20;;;;;;4806823;29;20784;-77
2024/04/08 10:21:50;;;;;;;6.03;4.00;;;27.70;92.10;;;;;;4815921;29;20404;-77
2024/04/08 10:24:28;;;;;;;6.73;4.10;;;27.40;90.90;;;;;;4813226;29;20839;-77
2024/04/08 10:27:04;;;;;;;9.70;5.27;;;27.50;91.80;;;;;;4807899;29;20299;-77
2024/04/08 10:29:33;;;;;;;10.43;4.20;;;27.80;90.90;;;;;;4810502;29;20298;-77
2024/04/08 10:32:02;;;;;;;7.67;4.10;;;27.30;90.20;;;;;;4807411;29;20687;-77
2024/04/08 10:34:28;;;;;;;4.83;2.47;;;27.20;91.60;;;;;;4809962;29;20359;-77
2024/04/08 10:36:57;;;;;;;4.23;2.50;;;27.20;92.50;;;;;;4806330;29;20264;-77
2024/04/08 10:39:26;;;;;;;4.30;2.70;;;27.30;91.80;;;;;;4814173;29;20256;-77
2024/04/08 10:41:55;;;;;;;5.40;2.60;;;27.50;93.40;;;;;;4806467;29;20758;-77
2024/04/08 10:44:24;;;;;;;5.97;2.40;;;27.70;90.70;;;;;;4814689;29;20294;-77
2024/04/08 10:46:53;;;;;;;7.87;2.70;;;27.90;88.90;;;;;;4814523;29;20257;-77
2024/04/08 10:49:19;;;;;;;6.07;2.63;;;27.80;88.90;;;;;;4797022;29;20265;-77
2024/04/08 10:51:50;;;;;;;5.60;2.60;;;27.90;90.20;;;;;;4808877;29;20253;-77
2024/04/08 10:54:17;;;;;;;4.93;2.50;;;27.90;91.00;;;;;;4797555;29;20284;-77
2024/04/08 10:56:46;;;;;;;5.47;2.57;;;28.00;90.40;;;;;;4802299;29;20302;-77
2024/04/08 10:59:12;;;;;;;5.40;2.70;;;28.10;91.40;;;;;;4812650;29;20256;-77
2024/04/08 11:01:43;;;;;;;8.63;3.00;;;28.20;91.30;;;;;;4798556;29;20731;-77
2024/04/08 11:04:09;;;;;;;6.87;2.60;;;28.00;90.20;;;;;;4802943;29;20741;-77
2024/04/08 11:06:38;;;;;;;5.70;2.90;;;28.00;92.50;;;;;;4796123;29;20276;-77
2024/04/08 11:09:04;;;;;;;4.93;2.70;;;28.00;91.30;;;;;;4814491;29;20725;-78
2024/04/08 11:11:34;;;;;;;9.10;3.23;;;28.00;90.60;;;;;;4813833;29;20271;-77
2024/04/08 11:13:59;;;;;;;10.97;3.63;;;28.10;83.40;;;;;;4814129;29;20257;-77
2024/04/08 11:16:29;;;;;;;10.70;3.60;;;28.00;82.40;;;;;;4811871;29;20813;-77
2024/04/08 11:18:58;;;;;;;10.87;3.53;;;28.00;82.60;;;;;;4805771;29;20762;-78
2024/04/08 11:21:27;;;;;;;13.23;3.63;;;28.00;83.70;;;;;;4807658;29;20645;-78
2024/04/08 11:23:53;;;;;;;13.27;4.07;;;28.00;81.60;;;;;;4814216;29;20245;-79
2024/04/08 11:26:22;;;;;;;10.90;3.77;;;27.90;79.40;;;;;;4811852;29;20253;-78
2024/04/08 11:28:48;;;;;;;8.50;3.37;;;27.90;81.50;;;;;;4817504;29;20294;-79
2024/04/08 11:31:16;;;;;;;9.93;3.43;;;28.00;83.70;;;;;;4809299;29;20254;-79
2024/04/08 11:33:42;;;;;;;12.17;3.67;;;28.10;81.40;;;;;;4829669;29;20256;-79
2024/04/08 11:36:13;;;;;;;6.90;3.27;;;28.20;79.10;;;;;;4815539;29;20303;-79
2024/04/08 11:38:41;;;;;;;8.43;3.10;;;28.50;80.00;;;;;;4805547;29;20796;-79
2024/04/08 11:41:09;;;;;;;8.00;3.10;;;28.80;80.10;;;;;;4814896;29;20272;-80
2024/04/08 11:43:35;;;;;;;10.47;3.50;;;28.90;78.30;;;;;;4817349;29;20444;-79
2024/04/08 11:46:04;;;;;;;13.47;4.87;;;28.80;79.40;;;;;;4807723;29;20293;-78
2024/04/08 11:48:30;;;;;;;13.10;4.20;;;28.70;79.20;;;;;;4805785;29;20292;-79
2024/04/08 11:50:58;;;;;;;9.10;3.83;;;28.60;78.00;;;;;;4805774;29;20265;-79
2024/04/08 11:53:27;;;;;;;11.37;5.90;;;28.70;80.30;;;;;;4813760;29;20805;-77
2024/04/08 11:55:55;;;;;;;11.60;5.80;;;28.60;75.90;;;;;;4817919;29;20249;-79
2024/04/08 11:58:21;;;;;;;11.60;5.30;;;28.70;80.00;;;;;;4818728;29;20586;-79
2024/04/08 12:00:50;;;;;;;9.83;5.73;;;28.70;77.20;;;;;;4816558;29;20324;-79
2024/04/08 12:03:16;;;;;;;10.23;3.97;;;28.80;78.40;;;;;;4817926;29;20248;-79
2024/04/08 12:05:52;;;;;;;10.20;6.03;;;28.90;78.80;;;;;;4816464;29;20268;-82
2024/04/08 12:08:31;;;;;;;8.50;5.27;;;29.00;78.90;;;;;;4831045;29;20272;-79
2024/04/08 12:11:00;;;;;;;6.53;3.50;;;29.00;79.60;;;;;;4817626;29;20256;-79
2024/04/08 12:13:26;;;;;;;6.93;4.93;;;29.10;80.70;;;;;;4815539;29;20291;-79
2024/04/08 12:15:55;;;;;;;8.60;4.70;;;29.30;79.40;;;;;;4811370;29;20333;-80
2024/04/08 12:18:20;;;;;;;10.93;4.73;;;29.50;79.40;;;;;;4818405;29;20293;-79
2024/04/08 12:20:49;;;;;;;7.03;4.43;;;29.50;79.00;;;;;;4820397;29;20708;-80
2024/04/08 12:23:15;;;;;;;8.77;4.50;;;29.60;77.50;;;;;;4815155;29;20264;-80
2024/04/08 12:25:46;;;;;;;9.77;4.03;;;29.60;78.10;;;;;;4792084;29;20265;-80
2024/04/08 12:28:12;;;;;;;11.03;4.77;;;29.50;75.90;;;;;;4809540;29;20299;-79
2024/04/08 12:30:42;;;;;;;10.33;4.70;;;29.30;75.40;;;;;;4790679;29;20447;-79
2024/04/08 12:33:08;;;;;;;7.73;4.57;;;29.30;76.70;;;;;;4816164;29;20833;-79
2024/04/08 12:35:37;;;;;;;8.03;4.30;;;29.30;76.40;;;;;;4796339;29;20303;-79
2024/04/08 12:38:08;;;;;;;10.50;5.27;;;29.20;77.30;;;;;;4818498;29;20806;-78
2024/04/08 12:40:37;;;;;;;11.57;4.40;;;29.30;76.10;;;;;;4818508;29;20257;-79
2024/04/08 12:43:05;;;;;;;12.87;5.50;;;29.30;72.80;;;;;;4818404;29;20256;-79
2024/04/08 12:45:34;;;;;;;17.57;5.53;;;29.50;74.30;;;;;;4818194;29;20314;-79
2024/04/08 12:48:00;;;;;;;9.83;5.50;;;29.50;75.70;;;;;;4816810;29;20252;-79
2024/04/08 12:50:29;;;;;;;13.50;6.20;;;29.30;74.00;;;;;;4817145;29;20272;-79
2024/04/08 12:52:55;;;;;;;11.30;5.80;;;29.20;76.50;;;;;;4809747;29;20566;-79
2024/04/08 12:55:24;;;;;;;21.93;6.40;;;29.00;77.80;;;;;;4819939;29;20252;-80
2024/04/08 12:57:50;;;;;;;13.20;6.20;;;28.90;80.50;;;;;;4796467;29;20883;-80
2024/04/08 13:00:21;;;;;;;13.83;4.83;;;28.80;79.70;;;;;;4821865;29;20272;-79
2024/04/08 13:02:47;;;;;;;15.67;5.90;;;28.80;79.40;;;;;;4819364;29;20671;-80
2024/04/08 13:05:16;;;;;;;13.10;6.30;;;28.70;78.80;;;;;;4818261;29;20278;-79
2024/04/08 13:07:41;;;;;;;11.13;6.10;;;28.60;77.60;;;;;;4820105;29;20713;-77
2024/04/08 13:10:10;;;;;;;8.43;5.27;;;28.50;79.40;;;;;;4816259;29;20312;-77
2024/04/08 13:12:36;;;;;;;10.43;5.30;;;28.50;78.30;;;;;;4805597;29;20264;-77
2024/04/08 13:15:05;;;;;;;13.60;5.47;;;28.40;78.80;;;;;;4812441;29;20312;-77
2024/04/08 13:17:34;;;;;;;11.27;4.93;;;28.40;77.70;;;;;;4815342;29;20397;-77
2024/04/08 13:20:02;;;;;;;19.90;6.93;;;28.40;78.10;;;;;;4804392;29;20268;-77
2024/04/08 13:22:28;;;;;;;15.40;5.27;;;28.50;76.30;;;;;;4815111;29;20248;-77
2024/04/08 13:24:57;;;;;;;14.13;5.60;;;28.40;75.50;;;;;;4802056;29;20286;-77